ADDS METAR Data INFO
IDs: Format: Raw Decoded Include TAF

Data at: 2043 UTC 16 Dec 2017

KFWN 161953Z AUTO 22008KT 10SM OVC036 00/M06 A2996 RMK AO2 SLP150 T00001061
KFWN 161853Z AUTO 22008KT 10SM OVC040 00/M06 A2995 RMK AO2 SLP146 T00001061
KFWN 161753Z AUTO 22009G16KT 10SM OVC041 M01/M07 A2994 RMK AO2 SLP146 T10061067 11006 21094 58023
KFWN 161653Z AUTO 22010KT 10SM OVC041 M02/M07 A2996 RMK AO2 SLP153 T10221072
KFWN 161553Z AUTO 22009KT 10SM OVC044 M04/M08 A3000 RMK AO2 SLP164 T10391083
KFWN 161453Z AUTO 20006KT 9SM OVC043 M05/M08 A3001 RMK AO2 SLP170 T10501083 51017
KFWN 161353Z AUTO 20007KT 7SM FEW043 M07/M09 A3000 RMK AO2 SLP166 T10671089
KFWN 161253Z AUTO 21004KT 5SM BR FEW042 M09/M10 A2999 RMK AO2 SLP162 T10891100
KFWN 161153Z AUTO VRB03KT 7SM CLR M09/M11 A2996 RMK AO2 SLP153 70001 I6000 T10941106 11078 21117 53016
KFWN 161053Z AUTO 00000KT 7SM CLR M10/M12 A2994 RMK AO2 SLP144 I1000 T11001117
KFWN 160953Z AUTO 19004KT 8SM CLR M10/M12 A2993 RMK AO2 SLP140 T11001122
KFWN 160853Z AUTO 21008KT 9SM CLR M08/M10 A2992 RMK AO2 SLP136 I3000 T10781100 51014
KFWN 160753Z AUTO 21007KT 8SM CLR M08/M10 A2991 RMK AO2 SLP134 I1000 T10831100
KFWN 160653Z AUTO 21005KT 7SM CLR M10/M11 A2989 RMK AO2 SLP128 I1000 T11001106
KFWN 160553Z AUTO 00000KT 4SM BR CLR M12/M12 A2987 RMK AO2 SLP123 60000 I1001 I6001 T11171117 11061 21117 53001
KFWN 160453Z AUTO 21004KT 7SM CLR M09/M11 A2987 RMK AO2 SLP122 T10891106 410501150
KFWN 160353Z AUTO 20004KT 10SM BKN075 M08/M09 A2987 RMK AO2 SLP123 T10781089
KFWN 160253Z AUTO 22003KT 10SM BKN085 M08/M09 A2987 RMK AO2 SLP123 60000 T10781089 58002
KFWN 160153Z AUTO 21003KT 10SM CLR M07/M09 A2988 RMK AO2 SLP125 T10721089
KFWN 160138Z AUTO 21003KT 10SM SCT026 M07/M09 A2988 RMK AO2 T10721089
KFWN 160100Z AUTO 00000KT 10SM OVC028 M07/M08 A2988 RMK AO2 T10671083
KFWN 160053Z AUTO 00000KT 10SM BKN030 OVC100 M07/M08 A2988 RMK AO2 SNE2358 SLP126 P0000 T10671083
KFWN 152353Z AUTO 00000KT 5SM -SN BR SCT040 OVC080 M06/M08 A2988 RMK AO2 SLP126 P0000 60001 T10611078 11050 21061 55003
KFWN 152253Z AUTO 00000KT 3SM -SN BR OVC040 M06/M07 A2988 RMK AO2 SLP126 P0000 T10611072
KFWN 152239Z AUTO 00000KT 2 1/2SM -SN BR OVC037 M06/M08 A2988 RMK AO2 P0000 T10611078
KFWN 152230Z AUTO 00000KT 3SM -SN BR OVC037 M06/M08 A2988 RMK AO2 P0000 T10611078
KFWN 152214Z AUTO 21003KT 2 1/2SM -SN BR OVC039 M06/M08 A2989 RMK AO2 P0000 T10611078
KFWN 152153Z AUTO 00000KT 3SM -SN BR OVC041 M06/M08 A2989 RMK AO2 SLP129 P0001 T10611078
KFWN 152145Z AUTO 00000KT 3SM -SN BR OVC037 M06/M08 A2989 RMK AO2 P0001 T10611078
KFWN 152107Z AUTO 00000KT 1 1/2SM -SN BR OVC030 M06/M08 A2989 RMK AO2 P0000 T10611078
KFWN 152053Z AUTO 00000KT 1 3/4SM -SN BR OVC026 M06/M08 A2989 RMK AO2 SLP130 P0000 60000 T10611083 56024
KFWN 152015Z AUTO 21003KT 1SM -SN OVC025 M06/M09 A2990 RMK AO2 P0000 T10611089
KFWN 152002Z AUTO 00000KT 1 1/2SM -SN BKN029 OVC036 M06/M09 A2991 RMK AO2 P0000 T10611089
KFWN 151953Z AUTO 19003KT 1 3/4SM -SN BKN030 OVC038 M06/M09 A2991 RMK AO2 SNB01 SLP138 P0000 T10561089
KFWN 151932Z AUTO 00000KT 2 1/2SM -SN BKN032 OVC042 M06/M09 A2992 RMK AO2 SNB01 P0000 T10561094
KFWN 151853Z AUTO 00000KT 8SM BKN037 OVC046 M05/M11 A2993 RMK AO2 SNB34E51 SLP142 P0000 T10501106
KFWN 151753Z AUTO 00000KT 10SM FEW055 SCT070 OVC090 M05/M12 A2996 RMK AO2 SLP153 T10501117 11050 21144 58035
KFWN 151653Z AUTO 00000KT 10SM OVC085 M06/M12 A3000 RMK AO2 SLP166 T10561122
KFWN 151553Z AUTO 00000KT 10SM SCT100 M07/M12 A3004 RMK AO2 SLP180 T10671117
KFWN 151453Z AUTO 00000KT 10SM BKN110 M09/M12 A3007 RMK AO2 SLP189 T10891117 51003
KFWN 151353Z AUTO 00000KT 10SM FEW110 M11/M13 A3007 RMK AO2 SLP189 T11061128
KFWN 151253Z AUTO 00000KT 10SM CLR M13/M15 A3006 RMK AO2 SLP188 T11281150
KFWN 151153Z AUTO 20003KT 10SM CLR M14/M16 A3006 RMK AO2 SLP187 T11441156 11133 21150 55002
KFWN 151053Z AUTO 00000KT 10SM CLR M14/M16 A3005 RMK AO2 SLP184 T11441161
KFWN 150953Z AUTO 00000KT 10SM CLR M14/M16 A3006 RMK AO2 SLP185 T11441161
KFWN 150853Z AUTO 00000KT 10SM CLR M14/M16 A3007 RMK AO2 SLP188 T11441161 50002